Time;durP1;ratioP1;P1;durP2;ratioP2;P2;SDS_P1;SDS_P2;PMS_P1;PMS_P2;Temp;Humidity;BMP_temperature;BMP_pressure;BME280_temperature;BME280_humidity;BME280_pressure;Samples;Min_cycle;Max_cycle;Signal;HPM_P1;HPM_P2
2022/01/10 00:00:11;;;;;;;12.32;5.63;;;3.50;99.90;;;;;;5053452;28;20400;-63
2022/01/10 00:02:38;;;;;;;12.43;6.80;;;3.50;99.90;;;;;;5052122;28;20470;-63
2022/01/10 00:05:04;;;;;;;14.82;6.13;;;3.60;99.90;;;;;;5035539;28;20396;-63
2022/01/10 00:07:29;;;;;;;9.57;6.00;;;3.60;99.90;;;;;;5052432;28;20389;-63
2022/01/10 00:09:55;;;;;;;14.55;5.80;;;3.60;99.90;;;;;;5053011;28;20390;-63
2022/01/10 00:12:21;;;;;;;12.47;6.23;;;3.70;99.90;;;;;;5052524;28;20705;-60
2022/01/10 00:14:47;;;;;;;12.50;5.90;;;3.80;99.90;;;;;;5052775;28;20932;-63
2022/01/10 00:17:12;;;;;;;13.15;5.90;;;3.90;99.90;;;;;;5053162;28;20393;-63
2022/01/10 00:19:38;;;;;;;12.07;6.28;;;3.90;99.90;;;;;;5052222;28;20404;-63
2022/01/10 00:22:07;;;;;;;11.10;5.60;;;3.80;99.90;;;;;;5052926;28;20385;-63
2022/01/10 00:24:33;;;;;;;11.10;5.97;;;3.90;99.90;;;;;;5051969;28;20406;-62
2022/01/10 00:26:59;;;;;;;12.35;5.60;;;3.80;99.90;;;;;;5069211;28;20371;-63
2022/01/10 00:29:24;;;;;;;13.23;6.20;;;3.70;99.90;;;;;;5052511;28;20749;-63
2022/01/10 00:31:50;;;;;;;13.27;5.80;;;3.70;99.90;;;;;;5072713;28;20455;-64
2022/01/10 00:34:16;;;;;;;10.82;6.00;;;3.70;99.90;;;;;;5072807;28;20376;-63
2022/01/10 00:36:45;;;;;;;12.20;5.93;;;3.80;99.90;;;;;;5071738;28;20424;-63
2022/01/10 00:39:11;;;;;;;13.30;6.13;;;3.80;99.90;;;;;;5072312;28;20394;-63
2022/01/10 00:41:37;;;;;;;12.30;6.20;;;3.70;99.90;;;;;;5071967;28;20376;-64
2022/01/10 00:44:04;;;;;;;14.77;6.57;;;3.70;99.90;;;;;;5072203;28;20900;-64
2022/01/10 00:46:29;;;;;;;11.77;5.57;;;3.70;99.90;;;;;;5071480;28;20438;-63
2022/01/10 00:48:55;;;;;;;11.47;6.50;;;3.70;99.90;;;;;;5072737;28;20429;-63
2022/01/10 00:51:21;;;;;;;16.92;8.23;;;3.70;99.90;;;;;;5071876;28;20389;-60
2022/01/10 00:53:50;;;;;;;16.55;7.32;;;3.80;99.90;;;;;;5072052;28;20383;-63
2022/01/10 00:56:16;;;;;;;13.18;6.47;;;4.00;99.90;;;;;;5072325;28;20388;-63
2022/01/10 00:58:42;;;;;;;11.02;6.30;;;3.90;99.90;;;;;;5071549;28;20492;-61
2022/01/10 01:01:08;;;;;;;13.57;7.00;;;3.90;99.90;;;;;;5072389;28;20467;-64
2022/01/10 01:03:34;;;;;;;12.77;7.10;;;5.30;99.90;;;;;;5070344;28;20443;-61
2022/01/10 01:06:00;;;;;;;14.10;7.90;;;4.00;99.90;;;;;;5072050;28;20815;-61
2022/01/10 01:08:28;;;;;;;14.32;7.32;;;3.80;99.90;;;;;;5071353;28;20802;-61
2022/01/10 01:13:34;;;;;;;12.07;7.25;;;3.80;99.90;;;;;;5071558;28;20483;-58
2022/01/10 01:24:06;;;;;;;16.10;8.10;;;3.70;99.90;;;;;;5071569;28;20465;-61
2022/01/10 01:26:41;;;;;;;14.60;8.10;;;4.10;99.90;;;;;;5070863;28;20419;-61
2022/01/10 01:29:09;;;;;;;14.68;8.57;;;3.50;99.90;;;;;;5070625;28;20744;-63
2022/01/10 01:31:36;;;;;;;12.80;7.20;;;3.50;99.90;;;;;;5069306;28;20394;-63
2022/01/10 01:34:01;;;;;;;15.80;8.27;;;3.70;99.90;;;;;;5071246;28;20718;-60
2022/01/10 01:36:29;;;;;;;15.10;8.57;;;3.40;99.90;;;;;;5070965;28;20379;-61
2022/01/10 01:38:55;;;;;;;13.95;7.65;;;3.30;99.90;;;;;;5050120;28;20788;-62
2022/01/10 01:41:36;;;;;;;14.88;8.35;;;3.40;99.90;;;;;;5061366;28;20389;-59
2022/01/10 01:44:03;;;;;;;12.95;7.95;;;3.40;99.90;;;;;;5062639;28;20499;-62
2022/01/10 01:46:32;;;;;;;16.45;8.65;;;3.40;99.90;;;;;;5069928;28;20466;-62
2022/01/10 01:48:57;;;;;;;14.50;8.13;;;3.50;99.90;;;;;;5049938;28;20879;-62
2022/01/10 01:51:24;;;;;;;14.77;8.40;;;3.40;99.90;;;;;;5050572;28;20393;-58
2022/01/10 01:53:50;;;;;;;13.55;7.80;;;3.40;99.90;;;;;;5051646;28;20918;-62
2022/01/10 01:56:17;;;;;;;15.32;8.07;;;3.40;99.90;;;;;;5051220;28;20381;-62
2022/01/10 01:58:44;;;;;;;14.55;8.07;;;3.50;99.90;;;;;;5050332;28;20415;-62
2022/01/10 02:01:18;;;;;;;14.90;7.90;;;3.40;99.90;;;;;;5051067;28;20421;-62
2022/01/10 02:03:45;;;;;;;15.23;7.93;;;3.40;99.90;;;;;;5050442;28;20420;-62
2022/01/10 02:06:11;;;;;;;15.63;8.23;;;3.30;99.90;;;;;;5050998;28;20378;-62
2022/01/10 02:08:38;;;;;;;13.15;7.85;;;3.80;99.90;;;;;;5050190;28;20374;-60
2022/01/10 02:11:07;;;;;;;13.07;7.18;;;3.30;99.90;;;;;;5054805;28;20492;-62
2022/01/10 02:13:32;;;;;;;14.13;7.53;;;3.30;99.90;;;;;;5069025;28;20788;-62
2022/01/10 02:16:01;;;;;;;13.40;7.68;;;3.40;99.90;;;;;;5069902;28;20415;-61
2022/01/10 02:18:27;;;;;;;14.40;7.25;;;3.40;99.90;;;;;;5070036;28;20380;-62
2022/01/10 02:20:54;;;;;;;16.30;7.78;;;3.30;99.90;;;;;;5070867;28;20429;-62
2022/01/10 02:23:20;;;;;;;18.17;8.80;;;4.70;99.90;;;;;;5070514;28;20404;-62
2022/01/10 02:25:47;;;;;;;16.15;7.95;;;3.20;99.90;;;;;;5070073;28;20880;-62
2022/01/10 02:28:13;;;;;;;16.20;8.00;;;4.30;99.90;;;;;;5052823;28;20906;-62
2022/01/10 02:30:40;;;;;;;14.15;8.00;;;3.30;99.90;;;;;;5069576;28;20448;-62
2022/01/10 02:33:06;;;;;;;13.90;7.80;;;3.30;99.90;;;;;;5070367;28;20745;-62
2022/01/10 02:35:39;;;;;;;13.55;7.82;;;3.40;99.90;;;;;;5069602;28;20367;-62
2022/01/10 02:38:05;;;;;;;17.08;8.40;;;3.40;99.90;;;;;;5070110;28;20411;-62
2022/01/10 02:40:32;;;;;;;14.40;8.07;;;3.50;99.90;;;;;;5069524;28;20841;-61
2022/01/10 02:42:59;;;;;;;15.93;8.10;;;3.80;99.90;;;;;;5070245;28;20415;-63
2022/01/10 02:45:25;;;;;;;14.90;7.70;;;4.40;99.90;;;;;;5069348;28;20398;-59
2022/01/10 02:47:52;;;;;;;16.95;7.97;;;3.70;99.90;;;;;;5070049;28;20418;-61
2022/01/10 02:50:19;;;;;;;14.73;8.13;;;3.50;99.90;;;;;;5070160;28;20388;-62
2022/01/10 02:52:45;;;;;;;15.90;8.40;;;3.60;99.90;;;;;;5069510;28;20438;-63
2022/01/10 02:55:12;;;;;;;13.80;8.00;;;4.70;99.90;;;;;;5070071;28;20812;-62
2022/01/10 02:57:39;;;;;;;15.07;8.50;;;3.60;99.90;;;;;;5069429;28;20383;-63
2022/01/10 03:00:17;;;;;;;16.05;8.63;;;3.60;99.90;;;;;;5052219;28;20388;-63
2022/01/10 03:02:44;;;;;;;17.50;8.10;;;3.50;99.90;;;;;;5068893;28;21139;-62
2022/01/10 03:05:12;;;;;;;16.20;8.80;;;3.40;99.90;;;;;;5069608;28;20856;-62
2022/01/10 03:07:38;;;;;;;13.68;7.93;;;3.40;99.90;;;;;;5069172;28;20412;-62
2022/01/10 03:10:05;;;;;;;17.70;8.30;;;3.30;99.90;;;;;;5069657;28;20376;-62
2022/01/10 03:12:31;;;;;;;16.45;9.02;;;3.30;99.90;;;;;;5068846;28;20733;-61
2022/01/10 03:14:58;;;;;;;17.85;8.32;;;4.50;99.90;;;;;;5069236;28;20412;-62
2022/01/10 03:17:24;;;;;;;16.15;8.30;;;3.40;99.90;;;;;;5069240;28;20376;-59
2022/01/10 03:19:50;;;;;;;16.10;8.13;;;3.40;99.90;;;;;;5069748;28;20830;-61
2022/01/10 03:22:16;;;;;;;16.38;8.98;;;3.40;99.90;;;;;;5069918;28;20468;-62
2022/01/10 03:24:43;;;;;;;15.20;8.20;;;3.50;99.90;;;;;;5068612;28;20857;-63
2022/01/10 03:27:10;;;;;;;13.55;8.30;;;3.60;99.90;;;;;;5062236;28;20383;-62
2022/01/10 03:29:35;;;;;;;13.35;7.88;;;3.50;99.90;;;;;;5057850;28;20422;-62
2022/01/10 03:32:02;;;;;;;15.57;8.60;;;3.50;99.90;;;;;;5063763;28;20742;-62
2022/01/10 03:34:28;;;;;;;13.32;8.30;;;3.50;99.90;;;;;;5055733;28;20455;-63
2022/01/10 03:36:54;;;;;;;14.93;8.38;;;3.50;99.90;;;;;;5049438;28;20377;-62
2022/01/10 03:39:20;;;;;;;16.42;8.25;;;3.50;99.90;;;;;;5064014;28;20922;-63
2022/01/10 03:41:45;;;;;;;15.20;8.00;;;3.50;99.90;;;;;;5068748;28;20372;-62
2022/01/10 03:44:11;;;;;;;15.30;7.90;;;3.50;99.90;;;;;;5068803;28;20935;-62
2022/01/10 03:46:37;;;;;;;14.35;8.30;;;3.50;99.90;;;;;;5068468;28;20380;-62
2022/01/10 03:49:04;;;;;;;13.73;7.70;;;3.70;99.90;;;;;;5069444;28;20474;-62
2022/01/10 03:51:30;;;;;;;14.48;7.90;;;3.70;99.90;;;;;;5046226;28;20744;-62
2022/01/10 03:53:56;;;;;;;15.55;8.60;;;3.70;99.90;;;;;;5049020;28;20468;-62
2022/01/10 03:56:23;;;;;;;17.92;9.52;;;3.80;99.90;;;;;;5049712;28;20950;-62
2022/01/10 03:58:49;;;;;;;14.77;8.50;;;3.90;99.90;;;;;;5068824;28;20386;-63
2022/01/10 04:01:15;;;;;;;16.83;9.13;;;3.80;99.90;;;;;;5068419;28;20494;-62
2022/01/10 04:03:41;;;;;;;18.52;9.77;;;4.60;99.90;;;;;;5068270;28;20403;-62
2022/01/10 04:06:08;;;;;;;17.67;9.73;;;3.90;99.90;;;;;;5069172;28;20876;-63
2022/01/10 04:08:34;;;;;;;15.73;8.77;;;3.70;99.90;;;;;;5068379;28;20404;-62
2022/01/10 04:11:00;;;;;;;16.95;9.40;;;3.70;99.90;;;;;;5062175;28;20417;-62
2022/01/10 04:13:26;;;;;;;16.37;8.80;;;3.70;99.90;;;;;;5053023;28;20447;-59
2022/01/10 04:15:52;;;;;;;15.90;9.13;;;3.60;99.90;;;;;;5048900;28;20420;-63
2022/01/10 04:18:18;;;;;;;16.00;9.30;;;3.50;99.90;;;;;;5031262;28;20508;-63
2022/01/10 04:20:45;;;;;;;15.25;9.02;;;3.50;99.90;;;;;;5061133;28;20572;-62
2022/01/10 04:23:12;;;;;;;16.27;9.07;;;3.50;99.90;;;;;;5068895;28;20411;-62
2022/01/10 04:25:38;;;;;;;17.92;10.35;;;3.60;99.90;;;;;;5068323;28;20410;-62
2022/01/10 04:28:04;;;;;;;18.75;10.18;;;3.50;99.90;;;;;;5069278;28;20388;-62
2022/01/10 04:30:30;;;;;;;17.75;9.68;;;5.30;99.90;;;;;;5067788;28;20861;-62
2022/01/10 04:33:00;;;;;;;17.10;9.70;;;3.50;99.90;;;;;;5068563;28;20388;-62
2022/01/10 04:35:27;;;;;;;14.70;8.20;;;3.60;99.90;;;;;;5068337;28;20374;-59
2022/01/10 04:37:53;;;;;;;18.40;9.98;;;3.70;99.90;;;;;;5050991;28;20517;-62
2022/01/10 04:40:19;;;;;;;18.60;9.77;;;3.80;99.90;;;;;;5072313;28;20375;-61
2022/01/10 04:42:45;;;;;;;17.15;9.68;;;3.80;99.90;;;;;;5071747;28;20884;-62
2022/01/10 04:45:11;;;;;;;17.35;9.38;;;3.70;99.90;;;;;;5072724;28;20391;-62
2022/01/10 04:47:37;;;;;;;16.05;9.30;;;3.70;99.90;;;;;;5070952;28;20474;-62
2022/01/10 04:50:33;;;;;;;17.33;9.10;;;3.80;99.90;;;;;;5072546;28;20581;-62
2022/01/10 04:52:53;;;;;;;15.07;8.90;;;3.80;99.90;;;;;;5072259;28;20396;-62
2022/01/10 04:55:20;;;;;;;15.10;9.60;;;3.80;99.90;;;;;;5072122;28;20695;-62
2022/01/10 04:57:46;;;;;;;17.58;8.93;;;3.80;99.90;;;;;;5071590;28;20467;-61
2022/01/10 05:00:14;;;;;;;18.98;9.52;;;5.10;99.90;;;;;;5072508;28;20383;-62
2022/01/10 05:02:42;;;;;;;14.37;8.80;;;3.70;99.90;;;;;;5071445;28;20414;-62
2022/01/10 05:05:08;;;;;;;19.73;9.35;;;3.90;99.90;;;;;;5054276;28;20772;-62
2022/01/10 05:07:34;;;;;;;18.33;10.40;;;5.50;99.90;;;;;;5071335;28;20463;-62
2022/01/10 05:09:59;;;;;;;18.80;8.10;;;3.80;99.90;;;;;;5072120;28;20907;-61
2022/01/10 05:12:27;;;;;;;17.40;9.20;;;5.00;99.90;;;;;;5071647;28;20399;-59
2022/01/10 05:14:53;;;;;;;15.95;9.48;;;3.30;99.90;;;;;;5071173;28;20408;-61
2022/01/10 05:17:21;;;;;;;17.17;9.00;;;3.80;99.90;;;;;;5071953;28;20462;-61
2022/01/10 05:19:47;;;;;;;19.23;10.10;;;3.80;99.90;;;;;;5067277;28;20400;-61
2022/01/10 05:22:12;;;;;;;18.00;9.30;;;3.80;99.90;;;;;;5055791;28;20388;-61
2022/01/10 05:24:38;;;;;;;18.77;8.32;;;3.90;99.90;;;;;;5070972;28;20425;-61
2022/01/10 05:27:04;;;;;;;15.48;8.20;;;3.80;99.90;;;;;;5068297;28;20396;-61
2022/01/10 05:29:31;;;;;;;15.18;9.00;;;3.80;99.90;;;;;;5077864;28;20386;-60
2022/01/10 05:31:56;;;;;;;16.15;8.43;;;3.90;99.90;;;;;;5079525;28;20384;-61
2022/01/10 05:34:22;;;;;;;14.05;8.00;;;4.40;99.90;;;;;;5078503;28;20741;-61
2022/01/10 05:36:48;;;;;;;14.77;8.30;;;3.90;99.90;;;;;;5080197;28;20989;-62
2022/01/10 05:39:13;;;;;;;15.48;8.65;;;3.90;99.90;;;;;;5070494;28;20380;-62
2022/01/10 05:41:39;;;;;;;15.33;8.53;;;4.00;99.90;;;;;;5070284;28;20380;-64
2022/01/10 05:44:05;;;;;;;18.20;8.47;;;4.00;99.90;;;;;;5066282;28;20432;-64
2022/01/10 05:46:34;;;;;;;16.60;7.85;;;4.40;99.90;;;;;;5065226;28;20395;-63
2022/01/10 05:49:01;;;;;;;16.30;8.80;;;4.10;99.90;;;;;;5066905;28;20392;-63
2022/01/10 05:51:29;;;;;;;17.70;9.30;;;4.10;99.90;;;;;;5069557;28;20915;-60
2022/01/10 05:53:55;;;;;;;13.55;8.02;;;4.10;99.90;;;;;;5070593;28;20394;-62
2022/01/10 05:56:21;;;;;;;17.40;9.20;;;4.20;99.90;;;;;;5070364;28;20789;-62
2022/01/10 05:58:47;;;;;;;21.40;9.85;;;4.30;99.90;;;;;;5070021;28;20382;-62
2022/01/10 06:01:12;;;;;;;19.13;11.30;;;4.30;99.90;;;;;;5070663;28;20419;-62
2022/01/10 06:03:38;;;;;;;20.40;10.70;;;4.40;99.90;;;;;;5069616;28;20408;-63
2022/01/10 06:06:04;;;;;;;21.17;10.60;;;4.20;99.90;;;;;;5070588;28;20402;-62
2022/01/10 06:08:29;;;;;;;20.50;10.53;;;5.40;99.90;;;;;;5069321;28;20380;-59
2022/01/10 06:10:55;;;;;;;21.00;11.05;;;4.20;99.90;;;;;;5068624;28;20409;-62
2022/01/10 06:13:21;;;;;;;23.23;10.60;;;4.20;99.90;;;;;;5070506;28;20391;-62
2022/01/10 06:15:46;;;;;;;25.43;11.90;;;4.20;99.90;;;;;;5066765;28;20423;-63
2022/01/10 06:18:12;;;;;;;24.65;11.40;;;4.30;99.90;;;;;;5057522;28;20437;-61
2022/01/10 06:20:38;;;;;;;28.80;13.50;;;5.50;99.90;;;;;;5064764;28;20404;-63
2022/01/10 06:23:03;;;;;;;21.75;11.50;;;4.40;99.90;;;;;;5067947;28;20427;-61
2022/01/10 06:25:30;;;;;;;45.38;19.88;;;6.00;99.90;;;;;;5062139;28;20484;-60
2022/01/10 06:27:57;;;;;;;44.35;19.20;;;4.30;99.90;;;;;;5068099;28;20834;-62
2022/01/10 06:30:23;;;;;;;39.85;18.55;;;5.30;99.90;;;;;;5070016;28;20446;-61
2022/01/10 06:32:49;;;;;;;41.10;17.50;;;4.00;99.90;;;;;;5051231;28;20392;-62
2022/01/10 06:35:15;;;;;;;27.47;13.03;;;5.50;99.90;;;;;;5067841;28;20453;-62
2022/01/10 06:37:41;;;;;;;28.05;12.77;;;4.00;99.90;;;;;;5064018;28;20873;-62
2022/01/10 06:40:08;;;;;;;25.70;13.10;;;5.30;99.90;;;;;;5070000;28;20395;-61
2022/01/10 06:42:33;;;;;;;25.27;12.63;;;4.00;99.90;;;;;;5068116;28;20476;-60
2022/01/10 06:45:00;;;;;;;24.00;13.33;;;4.00;99.90;;;;;;5069708;28;20399;-62
2022/01/10 06:47:25;;;;;;;26.88;13.88;;;4.00;99.90;;;;;;5067052;28;20468;-61
2022/01/10 06:49:51;;;;;;;24.65;13.50;;;3.90;99.90;;;;;;5066717;28;20853;-62
2022/01/10 06:52:17;;;;;;;29.20;13.93;;;4.00;99.90;;;;;;5069722;28;20368;-61
2022/01/10 06:54:43;;;;;;;30.07;13.93;;;4.70;99.90;;;;;;5068744;28;20840;-61
2022/01/10 06:57:09;;;;;;;28.83;14.57;;;4.00;99.90;;;;;;5069575;28;20381;-61
2022/01/10 06:59:34;;;;;;;26.80;13.20;;;4.10;99.90;;;;;;5062661;28;20395;-61
2022/01/10 07:02:00;;;;;;;25.70;12.90;;;4.20;99.90;;;;;;5072137;28;20400;-62
2022/01/10 07:04:26;;;;;;;29.30;14.20;;;4.00;99.90;;;;;;5062884;28;20928;-59
2022/01/10 07:06:53;;;;;;;25.75;12.32;;;4.10;99.90;;;;;;5063898;28;20407;-61
2022/01/10 07:09:19;;;;;;;23.50;12.23;;;4.10;99.90;;;;;;5069702;28;21033;-61
2022/01/10 07:11:45;;;;;;;30.92;12.52;;;3.90;99.90;;;;;;5068107;28;20379;-61
2022/01/10 07:14:12;;;;;;;30.97;13.03;;;3.80;99.90;;;;;;5068823;28;20787;-61
2022/01/10 07:16:38;;;;;;;32.75;13.75;;;4.10;99.90;;;;;;5068939;28;20391;-61
2022/01/10 07:19:06;;;;;;;28.40;13.60;;;3.70;99.90;;;;;;5069232;28;22138;-61
2022/01/10 07:21:33;;;;;;;29.85;14.00;;;3.80;99.90;;;;;;5064307;28;20385;-61
2022/01/10 07:23:58;;;;;;;30.05;14.73;;;3.90;99.90;;;;;;5085298;28;20492;-61
2022/01/10 07:26:25;;;;;;;31.17;13.93;;;3.90;99.90;;;;;;5074801;28;20473;-61
2022/01/10 07:28:50;;;;;;;32.85;15.05;;;4.00;99.90;;;;;;5078276;28;20420;-61
2022/01/10 07:31:16;;;;;;;26.73;14.17;;;4.00;99.90;;;;;;5075391;28;20380;-61
2022/01/10 07:33:42;;;;;;;30.02;13.85;;;4.00;99.90;;;;;;5065873;28;20444;-61
2022/01/10 07:36:07;;;;;;;28.38;14.85;;;5.00;99.90;;;;;;5084476;28;20428;-61
2022/01/10 07:38:35;;;;;;;28.97;16.53;;;3.90;99.90;;;;;;5061103;28;20389;-61
2022/01/10 07:41:05;;;;;;;27.15;14.30;;;3.90;99.90;;;;;;5058976;28;20401;-61
2022/01/10 07:43:31;;;;;;;28.20;15.13;;;4.00;99.90;;;;;;5074191;28;21196;-59
2022/01/10 07:45:57;;;;;;;26.77;15.00;;;4.10;99.90;;;;;;5073907;28;20406;-61
2022/01/10 07:48:24;;;;;;;29.27;15.80;;;4.10;99.90;;;;;;5070096;28;20529;-61
2022/01/10 07:50:49;;;;;;;32.30;15.52;;;4.00;99.90;;;;;;5068370;28;20450;-62
2022/01/10 07:53:15;;;;;;;25.88;15.32;;;4.00;99.90;;;;;;5072216;28;20896;-61
2022/01/10 07:55:41;;;;;;;28.87;15.10;;;5.30;99.90;;;;;;5061885;28;20379;-61
2022/01/10 07:58:06;;;;;;;27.17;14.88;;;4.10;99.90;;;;;;5080485;28;20428;-60
2022/01/10 08:00:32;;;;;;;23.83;13.00;;;4.10;99.90;;;;;;5072081;28;20382;-59
2022/01/10 08:02:58;;;;;;;30.57;15.10;;;5.00;99.90;;;;;;5068408;28;20419;-62
2022/01/10 08:05:23;;;;;;;24.17;12.95;;;4.10;99.90;;;;;;5068991;28;20539;-62
2022/01/10 08:07:49;;;;;;;24.13;13.55;;;4.90;99.90;;;;;;5067984;28;20378;-61
2022/01/10 08:10:15;;;;;;;26.50;14.00;;;4.10;99.90;;;;;;5069078;28;20861;-62
2022/01/10 08:12:41;;;;;;;24.40;14.68;;;4.20;99.90;;;;;;5050041;28;20895;-62
2022/01/10 08:15:07;;;;;;;30.57;17.23;;;4.40;99.90;;;;;;5072815;28;20404;-62
2022/01/10 08:17:33;;;;;;;28.80;17.13;;;4.30;99.90;;;;;;5071315;28;20500;-60
2022/01/10 08:19:58;;;;;;;31.60;17.50;;;4.30;99.90;;;;;;5073129;28;20881;-62
2022/01/10 08:22:24;;;;;;;33.27;15.30;;;4.30;99.90;;;;;;5072766;28;20437;-62
2022/01/10 08:24:52;;;;;;;28.45;14.15;;;4.30;99.90;;;;;;5072191;28;20371;-62
2022/01/10 08:27:17;;;;;;;30.30;14.85;;;4.30;99.90;;;;;;5072644;28;20379;-62
2022/01/10 08:29:43;;;;;;;40.80;20.10;;;6.00;99.90;;;;;;5072114;28;20911;-61
2022/01/10 08:32:09;;;;;;;42.33;21.25;;;6.00;99.90;;;;;;5072927;28;20449;-61
2022/01/10 08:34:35;;;;;;;30.73;14.07;;;4.40;99.90;;;;;;5071812;28;20872;-61
2022/01/10 08:37:01;;;;;;;33.58;17.27;;;4.30;99.90;;;;;;5072233;28;20793;-64
2022/01/10 08:39:27;;;;;;;31.13;16.00;;;4.20;99.90;;;;;;5072451;28;20462;-62
2022/01/10 08:41:53;;;;;;;28.33;13.80;;;4.10;99.90;;;;;;5071723;28;20490;-63
2022/01/10 08:44:18;;;;;;;25.48;13.27;;;4.10;99.90;;;;;;5072573;28;20419;-62
2022/01/10 08:46:45;;;;;;;27.80;13.10;;;4.10;99.90;;;;;;5071612;28;20825;-62
2022/01/10 08:49:12;;;;;;;30.38;13.85;;;4.30;99.90;;;;;;5072249;28;20709;-62
2022/01/10 08:51:39;;;;;;;27.98;14.07;;;4.30;99.90;;;;;;5071852;28;20400;-62
2022/01/10 08:54:05;;;;;;;29.67;15.23;;;4.90;99.90;;;;;;5072396;28;20955;-61
2022/01/10 08:56:32;;;;;;;29.40;14.40;;;4.60;99.90;;;;;;5053825;28;20423;-59
2022/01/10 08:58:58;;;;;;;25.52;14.18;;;4.40;99.90;;;;;;5072576;28;20376;-62
2022/01/10 09:01:24;;;;;;;29.65;13.88;;;4.60;99.90;;;;;;5071762;28;20368;-62
2022/01/10 09:03:49;;;;;;;28.02;13.10;;;4.60;99.90;;;;;;5071124;28;20443;-62
2022/01/10 09:06:15;;;;;;;28.70;12.40;;;4.60;99.90;;;;;;5072293;28;20869;-61
2022/01/10 09:08:43;;;;;;;23.27;11.02;;;4.50;99.90;;;;;;5070732;28;20383;-62
2022/01/10 09:11:08;;;;;;;27.10;12.45;;;4.40;99.90;;;;;;5071993;28;20904;-62
2022/01/10 09:13:34;;;;;;;20.60;10.70;;;4.50;99.90;;;;;;5053518;28;20530;-61
2022/01/10 09:16:02;;;;;;;25.05;11.48;;;4.50;99.90;;;;;;5071983;28;20498;-62
2022/01/10 09:18:28;;;;;;;22.17;10.30;;;4.70;99.90;;;;;;5071874;28;20398;-62
2022/01/10 09:20:55;;;;;;;21.63;10.03;;;4.80;99.90;;;;;;5071387;28;20376;-62
2022/01/10 09:23:22;;;;;;;20.30;10.10;;;5.20;99.90;;;;;;5071279;28;20738;-62
2022/01/10 09:25:49;;;;;;;24.90;10.30;;;5.00;99.90;;;;;;5069795;28;20416;-62
2022/01/10 09:28:16;;;;;;;24.30;10.80;;;5.00;99.90;;;;;;5071596;28;20928;-62
2022/01/10 09:30:42;;;;;;;22.42;10.02;;;4.90;99.90;;;;;;5071027;28;20409;-62
2022/01/10 09:33:08;;;;;;;21.63;10.70;;;4.90;99.90;;;;;;5071717;28;20394;-62
2022/01/10 09:35:34;;;;;;;24.45;10.80;;;4.90;99.90;;;;;;5071236;28;20368;-59
2022/01/10 09:37:59;;;;;;;22.70;10.40;;;4.70;99.90;;;;;;5071228;28;20406;-62
2022/01/10 09:40:25;;;;;;;21.53;9.50;;;4.70;99.90;;;;;;5071626;28;20387;-62
2022/01/10 09:42:51;;;;;;;24.60;12.70;;;4.80;99.90;;;;;;5070555;28;20412;-62
2022/01/10 09:45:17;;;;;;;25.42;12.55;;;4.80;99.90;;;;;;5071734;28;20380;-62
2022/01/10 09:47:42;;;;;;;21.77;11.50;;;4.80;99.90;;;;;;5071003;28;20511;-62
2022/01/10 09:50:10;;;;;;;27.73;13.47;;;5.00;99.90;;;;;;5071658;28;20904;-62
2022/01/10 09:52:39;;;;;;;27.70;15.45;;;5.30;99.90;;;;;;5070396;28;20383;-62
2022/01/10 09:55:06;;;;;;;28.00;15.10;;;5.40;99.90;;;;;;5071096;28;20376;-62
2022/01/10 09:57:32;;;;;;;26.75;13.77;;;5.40;99.90;;;;;;5070878;28;20402;-57
2022/01/10 09:59:57;;;;;;;29.60;13.55;;;5.40;99.90;;;;;;5070620;28;20384;-62
2022/01/10 10:02:33;;;;;;;26.90;12.73;;;5.40;99.90;;;;;;5070980;28;20372;-62
2022/01/10 10:05:07;;;;;;;25.88;12.00;;;5.50;99.90;;;;;;5070561;28;20429;-63
2022/01/10 10:07:35;;;;;;;27.90;13.60;;;5.40;99.90;;;;;;5070315;28;20380;-57
2022/01/10 10:10:07;;;;;;;26.17;12.88;;;5.40;99.90;;;;;;5070922;28;20409;-63
2022/01/10 10:12:33;;;;;;;23.50;13.10;;;5.50;99.90;;;;;;5070587;28;20384;-58
2022/01/10 10:15:07;;;;;;;26.75;14.25;;;5.40;99.90;;;;;;5070573;28;20914;-60
2022/01/10 10:17:34;;;;;;;26.77;14.20;;;5.30;99.90;;;;;;5070433;28;20403;-57
2022/01/10 10:20:23;;;;;;;25.58;13.30;;;5.40;99.90;;;;;;5070555;28;20380;-61
2022/01/10 10:22:51;;;;;;;30.20;14.38;;;5.50;99.90;;;;;;5069437;28;20880;-61
2022/01/10 10:25:17;;;;;;;29.90;15.30;;;5.50;99.90;;;;;;5070304;28;20372;-60
2022/01/10 10:27:46;;;;;;;28.40;13.95;;;5.50;99.90;;;;;;5069816;28;20375;-61
2022/01/10 10:30:26;;;;;;;31.10;15.00;;;5.60;99.90;;;;;;5070568;28;20385;-61
2022/01/10 10:32:51;;;;;;;30.77;14.90;;;5.70;99.90;;;;;;5069449;28;20390;-61
2022/01/10 10:35:18;;;;;;;31.40;13.97;;;5.90;99.90;;;;;;5070069;28;20372;-61
2022/01/10 10:37:45;;;;;;;27.53;14.67;;;6.10;99.90;;;;;;5068890;28;20391;-61
2022/01/10 10:40:14;;;;;;;26.48;12.80;;;6.40;99.90;;;;;;5070134;28;20853;-61
2022/01/10 10:42:42;;;;;;;25.52;12.05;;;6.50;99.90;;;;;;5069231;28;20407;-61
2022/01/10 10:45:11;;;;;;;27.63;13.15;;;6.30;99.90;;;;;;5069785;28;20946;-61
2022/01/10 10:47:40;;;;;;;28.75;14.77;;;6.40;99.90;;;;;;5068866;28;20529;-60
2022/01/10 10:50:07;;;;;;;31.00;15.18;;;6.90;99.90;;;;;;5069935;28;20406;-61
2022/01/10 10:52:35;;;;;;;22.00;11.88;;;7.80;99.90;;;;;;5069197;28;20469;-58
2022/01/10 10:55:06;;;;;;;19.20;9.40;;;8.10;99.90;;;;;;5070063;28;20473;-63
2022/01/10 10:57:32;;;;;;;21.33;10.27;;;8.40;99.90;;;;;;5069627;28;20853;-58
2022/01/10 11:00:00;;;;;;;22.60;10.10;;;8.50;99.90;;;;;;5069055;28;20378;-61
2022/01/10 11:02:27;;;;;;;19.98;10.38;;;8.70;99.90;;;;;;5069907;28;20459;-61
2022/01/10 11:04:53;;;;;;;19.25;10.10;;;7.30;99.90;;;;;;5050960;28;20391;-61
2022/01/10 11:07:24;;;;;;;21.58;10.50;;;8.60;99.90;;;;;;5069744;28;20372;-63
2022/01/10 11:09:51;;;;;;;19.23;10.27;;;8.70;99.90;;;;;;5068969;28;20471;-61
2022/01/10 11:12:21;;;;;;;20.35;9.70;;;8.70;99.90;;;;;;5069591;28;20902;-61
2022/01/10 11:14:47;;;;;;;20.37;10.37;;;9.00;99.90;;;;;;5068439;28;20403;-63
2022/01/10 11:17:19;;;;;;;20.48;11.98;;;8.80;99.90;;;;;;5069131;28;20384;-60
2022/01/10 11:20:06;;;;;;;23.92;12.50;;;8.50;99.90;;;;;;5068859;28;20415;-62
2022/01/10 11:22:32;;;;;;;23.95;12.20;;;8.30;99.90;;;;;;5069612;28;20392;-58
2022/01/10 11:24:57;;;;;;;26.52;12.90;;;7.90;99.90;;;;;;5068937;28;20402;-62
2022/01/10 11:27:29;;;;;;;24.37;11.70;;;7.50;99.90;;;;;;5069672;28;20380;-60
2022/01/10 11:29:57;;;;;;;23.30;11.95;;;7.70;99.90;;;;;;5068761;28;20398;-60
2022/01/10 11:32:50;;;;;;;27.30;13.70;;;7.50;99.90;;;;;;5069333;28;20409;-60
2022/01/10 11:35:17;;;;;;;24.20;12.05;;;7.40;99.90;;;;;;5069273;28;20514;-60
2022/01/10 11:37:43;;;;;;;25.60;11.90;;;7.30;99.90;;;;;;5068261;28;20387;-60
2022/01/10 11:40:11;;;;;;;25.30;13.15;;;7.10;99.90;;;;;;5051061;28;20407;-58
2022/01/10 11:42:44;;;;;;;25.60;12.55;;;7.00;99.90;;;;;;5050435;28;20791;-59
2022/01/10 11:45:12;;;;;;;27.75;13.20;;;7.00;99.90;;;;;;5069335;28;20387;-59
2022/01/10 11:48:04;;;;;;;24.65;11.90;;;7.10;99.90;;;;;;5067593;28;20392;-60
2022/01/10 11:50:30;;;;;;;24.75;12.48;;;7.20;99.90;;;;;;5069085;28;20470;-60
2022/01/10 11:52:59;;;;;;;24.58;11.68;;;7.10;99.90;;;;;;5068409;28;20384;-60
2022/01/10 11:55:50;;;;;;;24.52;12.07;;;7.00;99.90;;;;;;5051197;28;20838;-60
2022/01/10 11:58:19;;;;;;;24.92;13.88;;;7.00;99.90;;;;;;5069545;28;20391;-60
2022/01/10 12:00:45;;;;;;;22.60;11.63;;;7.10;99.90;;;;;;5050348;28;20388;-60
2022/01/10 12:03:11;;;;;;;23.30;12.60;;;6.80;99.90;;;;;;5068857;28;20919;-60
2022/01/10 12:05:37;;;;;;;20.05;11.40;;;6.70;99.90;;;;;;5068530;28;20462;-57
2022/01/10 12:08:06;;;;;;;30.25;13.85;;;6.80;99.90;;;;;;5051333;28;20376;-60
2022/01/10 12:10:32;;;;;;;32.50;14.70;;;6.70;99.90;;;;;;5068967;28;20384;-59
2022/01/10 12:13:05;;;;;;;39.40;17.17;;;6.80;99.90;;;;;;5068287;28;20382;-60
2022/01/10 12:15:34;;;;;;;47.33;20.00;;;6.60;99.90;;;;;;5050518;28;20420;-60
2022/01/10 12:18:00;;;;;;;29.17;14.05;;;6.50;99.90;;;;;;5067751;28;20435;-60
2022/01/10 12:20:26;;;;;;;25.15;14.00;;;6.60;99.90;;;;;;5068454;28;20430;-60
2022/01/10 12:22:53;;;;;;;21.45;11.65;;;6.80;99.90;;;;;;5068248;28;20471;-60
2022/01/10 12:25:19;;;;;;;20.23;10.80;;;6.70;99.90;;;;;;5068738;28;20474;-60
2022/01/10 12:27:45;;;;;;;36.37;15.23;;;6.70;99.90;;;;;;5067887;28;20467;-60
2022/01/10 12:30:11;;;;;;;37.30;15.63;;;6.70;99.90;;;;;;5068873;28;20409;-60
2022/01/10 12:32:38;;;;;;;74.95;26.33;;;6.80;99.90;;;;;;5067936;28;20407;-58
2022/01/10 12:35:04;;;;;;;43.25;18.55;;;6.70;99.90;;;;;;5068114;28;20425;-60
2022/01/10 12:37:30;;;;;;;64.82;23.50;;;6.80;99.90;;;;;;5068373;28;20884;-60
2022/01/10 12:39:56;;;;;;;29.75;14.25;;;6.80;99.90;;;;;;5067808;28;20376;-60
2022/01/10 12:42:26;;;;;;;23.40;11.93;;;6.80;99.90;;;;;;5068439;28;20368;-60
2022/01/10 12:44:52;;;;;;;23.50;11.00;;;6.80;99.90;;;;;;5067998;28;20441;-60
2022/01/10 12:47:18;;;;;;;27.77;12.35;;;6.90;99.90;;;;;;5068524;28;20479;-60
2022/01/10 12:49:47;;;;;;;23.70;12.80;;;7.00;99.90;;;;;;5068006;28;20521;-60